createdAt,value
2023-04-01T00:00:37.000Z,0
2023-04-01T00:01:53.000Z,0
2023-04-01T00:03:09.000Z,0
2023-04-01T00:04:26.000Z,0
2023-04-01T00:05:42.000Z,0
2023-04-01T00:06:58.000Z,0
2023-04-01T00:08:13.000Z,0
2023-04-01T00:09:30.000Z,0
2023-04-01T00:10:46.000Z,0
2023-04-01T00:12:02.000Z,0
2023-04-01T00:13:19.000Z,0
2023-04-01T00:14:35.000Z,0
2023-04-01T00:15:51.867Z,0
2023-04-01T00:17:06.000Z,0
2023-04-01T00:18:22.000Z,0
2023-04-01T00:19:38.000Z,0
2023-04-01T00:20:53.000Z,0
2023-04-01T00:22:09.000Z,0
2023-04-01T00:23:25.000Z,0
2023-04-01T00:24:41.000Z,0
2023-04-01T00:25:57.000Z,0
2023-04-01T00:27:14.000Z,0
2023-04-01T00:28:30.000Z,0
2023-04-01T00:29:46.000Z,0
2023-04-01T00:31:03.000Z,0
2023-04-01T00:32:19.000Z,0
2023-04-01T00:33:35.976Z,0
2023-04-01T00:34:52.000Z,0
2023-04-01T00:36:08.000Z,0
2023-04-01T00:37:24.000Z,0
2023-04-01T00:38:39.000Z,0
2023-04-01T00:39:55.000Z,0
2023-04-01T00:41:11.000Z,0
2023-04-01T00:42:28.014Z,0
2023-04-01T00:43:44.000Z,0
2023-04-01T00:45:00.000Z,0
2023-04-01T00:46:16.000Z,0
2023-04-01T00:47:33.301Z,0
2023-04-01T00:48:49.000Z,0
2023-04-01T00:50:05.000Z,0
2023-04-01T00:51:21.000Z,0
2023-04-01T00:52:38.000Z,0
2023-04-01T00:53:53.000Z,0
2023-04-01T00:55:08.000Z,0
2023-04-01T00:56:24.000Z,0
2023-04-01T00:57:41.000Z,0
2023-04-01T00:58:56.000Z,0
2023-04-01T01:00:11.000Z,0
2023-04-01T01:01:28.000Z,0
2023-04-01T01:02:44.000Z,0
2023-04-01T01:04:00.000Z,0
2023-04-01T01:05:17.000Z,0
2023-04-01T01:06:33.000Z,0
2023-04-01T01:07:49.000Z,0
2023-04-01T01:09:05.000Z,0
2023-04-01T01:10:22.000Z,0
2023-04-01T01:11:38.697Z,0
2023-04-01T01:12:55.010Z,0
2023-04-01T01:14:11.000Z,0
2023-04-01T01:15:27.000Z,0
2023-04-01T01:16:42.000Z,0
2023-04-01T01:17:58.000Z,0
2023-04-01T01:19:15.000Z,0
2023-04-01T01:20:31.000Z,0
2023-04-01T01:21:47.000Z,0
2023-04-01T01:23:04.000Z,0
2023-04-01T01:24:20.000Z,0
2023-04-01T01:25:35.000Z,0
2023-04-01T01:26:50.000Z,0
2023-04-01T01:28:07.000Z,0
2023-04-01T01:29:22.000Z,0
2023-04-01T01:30:37.000Z,0
2023-04-01T01:31:54.000Z,0
2023-04-01T01:33:10.000Z,0
2023-04-01T01:34:26.000Z,0
2023-04-01T01:35:43.000Z,0
2023-04-01T01:36:59.000Z,0
2023-04-01T01:38:15.000Z,0
2023-04-01T01:39:31.000Z,0
2023-04-01T01:40:48.000Z,0
2023-04-01T01:42:04.000Z,0
2023-04-01T01:43:20.000Z,0
2023-04-01T01:44:37.000Z,0
2023-04-01T01:45:53.000Z,0
2023-04-01T01:47:08.000Z,0
2023-04-01T01:48:24.000Z,0
2023-04-01T01:49:41.448Z,0
2023-04-01T01:50:57.000Z,0
2023-04-01T01:52:13.000Z,0
2023-04-01T01:53:30.000Z,0
2023-04-01T01:54:46.000Z,0
2023-04-01T01:56:02.000Z,0
2023-04-01T01:57:18.000Z,0
2023-04-01T01:58:35.000Z,0
2023-04-01T01:59:51.000Z,0
2023-04-01T02:01:07.000Z,0
2023-04-01T02:02:24.000Z,0
2023-04-01T02:03:39.000Z,0
2023-04-01T02:04:55.000Z,0
2023-04-01T02:06:11.000Z,0
2023-04-01T02:07:27.000Z,0
2023-04-01T02:08:42.000Z,0
2023-04-01T02:09:57.000Z,0
2023-04-01T02:11:13.000Z,0
2023-04-01T02:12:29.000Z,0
2023-04-01T02:13:45.000Z,0
2023-04-01T02:15:02.000Z,0
2023-04-01T02:16:18.000Z,0
2023-04-01T02:17:34.000Z,0
2023-04-01T02:18:50.000Z,0
2023-04-01T02:20:07.000Z,0
2023-04-01T02:21:23.000Z,0
2023-04-01T02:22:39.000Z,0
2023-04-01T02:23:56.000Z,0
2023-04-01T02:25:12.000Z,0
2023-04-01T02:26:28.000Z,0
2023-04-01T02:27:44.186Z,0
2023-04-01T02:29:00.000Z,0
2023-04-01T02:30:16.000Z,0
2023-04-01T02:31:32.000Z,0
2023-04-01T02:32:49.000Z,0
2023-04-01T02:34:05.000Z,0
2023-04-01T02:35:21.000Z,0
2023-04-01T02:36:36.000Z,0
2023-04-01T02:37:52.000Z,0
2023-04-01T02:39:08.000Z,0
2023-04-01T02:40:23.000Z,0
2023-04-01T02:41:39.000Z,0
2023-04-01T02:42:55.000Z,0
2023-04-01T02:44:11.000Z,0
2023-04-01T02:45:28.000Z,0
2023-04-01T02:46:44.602Z,0
2023-04-01T02:48:00.000Z,0
2023-04-01T02:49:16.000Z,0
2023-04-01T02:50:33.000Z,0
2023-04-01T02:51:49.000Z,0
2023-04-01T02:53:05.000Z,0
2023-04-01T02:54:22.000Z,0
2023-04-01T02:55:38.000Z,0
2023-04-01T02:56:54.000Z,0
2023-04-01T02:58:09.000Z,0
2023-04-01T02:59:26.000Z,0
2023-04-01T03:00:42.000Z,0
2023-04-01T03:01:58.000Z,0
2023-04-01T03:03:15.000Z,0
2023-04-01T03:04:31.000Z,0
2023-04-01T03:05:47.923Z,0
2023-04-01T03:07:03.230Z,0
2023-04-01T03:08:18.000Z,0
2023-04-01T03:09:34.000Z,0
2023-04-01T03:10:49.000Z,0
2023-04-01T03:12:05.000Z,0
2023-04-01T03:13:21.745Z,0
2023-04-01T03:14:37.000Z,0
2023-04-01T03:15:54.000Z,0
2023-04-01T03:17:10.000Z,0
2023-04-01T03:18:26.000Z,0
2023-04-01T03:19:42.000Z,0
2023-04-01T03:20:59.000Z,0
2023-04-01T03:22:15.000Z,0
2023-04-01T03:23:31.000Z,0
2023-04-01T03:24:48.000Z,0
2023-04-01T03:26:04.000Z,0
2023-04-01T03:27:20.000Z,0
2023-04-01T03:28:35.000Z,0
2023-04-01T03:29:52.000Z,0
2023-04-01T03:31:08.000Z,0
2023-04-01T03:32:24.000Z,0
2023-04-01T03:33:41.000Z,0
2023-04-01T03:34:57.000Z,0
2023-04-01T03:36:13.000Z,0
2023-04-01T03:37:29.000Z,0
2023-04-01T03:38:46.000Z,0
2023-04-01T03:40:02.000Z,0
2023-04-01T03:41:17.000Z,0
2023-04-01T03:42:33.377Z,0
2023-04-01T03:43:49.683Z,0
2023-04-01T03:45:05.000Z,0
2023-04-01T03:46:21.000Z,0
2023-04-01T03:47:36.000Z,0
2023-04-01T03:48:52.000Z,0
2023-04-01T03:50:08.000Z,0
2023-04-01T03:51:25.434Z,0
2023-04-01T03:52:41.000Z,0
2023-04-01T03:53:57.000Z,0
2023-04-01T03:55:14.000Z,0
2023-04-01T03:56:30.000Z,0
2023-04-01T03:57:46.000Z,0
2023-04-01T03:59:02.000Z,0
2023-04-01T04:00:19.000Z,0
2023-04-01T04:01:35.000Z,0
2023-04-01T04:02:51.000Z,0
2023-04-01T04:04:07.000Z,0
2023-04-01T04:05:23.000Z,0
2023-04-01T04:06:39.000Z,0
2023-04-01T04:07:55.000Z,0
2023-04-01T04:09:12.000Z,0
2023-04-01T04:10:28.000Z,0
2023-04-01T04:11:44.000Z,0
2023-04-01T04:13:00.000Z,0
2023-04-01T04:14:15.000Z,0
2023-04-01T04:15:31.000Z,0
2023-04-01T04:16:47.000Z,0
2023-04-01T04:18:02.000Z,0
2023-04-01T04:19:18.000Z,0
2023-04-01T04:20:35.169Z,0
2023-04-01T04:21:51.000Z,0
2023-04-01T04:23:07.000Z,0
2023-04-01T04:24:23.000Z,0
2023-04-01T04:25:40.000Z,0
2023-04-01T04:26:56.000Z,0
2023-04-01T04:28:12.000Z,0
2023-04-01T04:29:28.000Z,0
2023-04-01T04:30:45.000Z,0
2023-04-01T04:32:01.000Z,0
2023-04-01T04:33:17.000Z,0
2023-04-01T04:34:33.322Z,0
2023-04-01T04:35:49.000Z,0
2023-04-01T04:37:05.000Z,0
2023-04-01T04:38:21.000Z,0
2023-04-01T04:39:38.000Z,0
2023-04-01T04:40:54.000Z,0
2023-04-01T04:42:10.000Z,0
2023-04-01T04:43:26.000Z,0
2023-04-01T04:44:41.000Z,0
2023-04-01T04:45:57.910Z,1
2023-04-01T04:47:12.000Z,0
2023-04-01T04:48:28.000Z,1
2023-04-01T04:49:44.737Z,1
2023-04-01T04:52:17.000Z,0
2023-04-01T04:53:33.575Z,0
2023-04-01T04:54:48.000Z,2
2023-04-01T04:56:04.000Z,1
2023-04-01T04:57:21.331Z,1
2023-04-01T04:58:37.000Z,4
2023-04-01T04:59:53.000Z,3
2023-04-01T05:01:10.023Z,4
2023-04-01T05:02:26.000Z,9
2023-04-01T05:03:42.000Z,11
2023-04-01T05:04:58.000Z,13
2023-04-01T05:06:14.000Z,15
2023-04-01T05:07:30.000Z,15
2023-04-01T05:08:47.000Z,17
2023-04-01T05:10:03.000Z,20
2023-04-01T05:11:18.000Z,18
2023-04-01T05:12:35.145Z,20
2023-04-01T05:13:51.000Z,25
2023-04-01T05:15:07.000Z,26
2023-04-01T05:16:23.000Z,25
2023-04-01T05:17:40.080Z,25
2023-04-01T05:18:56.000Z,36
2023-04-01T05:20:12.000Z,42
2023-04-01T05:21:28.000Z,44
2023-04-01T05:22:44.000Z,46
2023-04-01T05:24:01.211Z,42
2023-04-01T05:25:17.490Z,41
2023-04-01T05:26:33.000Z,43
2023-04-01T05:27:48.000Z,43
2023-04-01T05:29:04.000Z,36
2023-04-01T05:30:21.000Z,36
2023-04-01T05:31:37.000Z,40
2023-04-01T05:32:53.000Z,38
2023-04-01T05:34:09.000Z,36
2023-04-01T05:35:25.000Z,42
2023-04-01T05:36:40.000Z,55
2023-04-01T05:37:56.000Z,54
2023-04-01T05:39:12.000Z,51
2023-04-01T05:40:28.000Z,60
2023-04-01T05:41:43.000Z,70
2023-04-01T05:42:59.000Z,79
2023-04-01T05:44:15.000Z,72
2023-04-01T05:45:32.000Z,79
2023-04-01T05:46:48.000Z,88
2023-04-01T05:48:04.000Z,96
2023-04-01T05:49:20.000Z,99
2023-04-01T05:50:37.260Z,96
2023-04-01T05:51:53.000Z,129
2023-04-01T05:53:09.000Z,123
2023-04-01T05:54:25.000Z,150
2023-04-01T05:55:41.000Z,128
2023-04-01T05:56:58.000Z,155
2023-04-01T05:58:13.000Z,164
2023-04-01T05:59:29.000Z,188
2023-04-01T06:00:45.877Z,167
2023-04-01T06:02:02.000Z,208
2023-04-01T06:03:18.000Z,239
2023-04-01T06:04:34.000Z,234
2023-04-01T06:05:50.000Z,292
2023-04-01T06:07:07.000Z,350
2023-04-01T06:08:23.000Z,419
2023-04-01T06:09:39.000Z,318
2023-04-01T06:10:55.000Z,286
2023-04-01T06:12:11.000Z,259
2023-04-01T06:13:28.000Z,299
2023-04-01T06:14:43.000Z,242
2023-04-01T06:15:59.000Z,190
2023-04-01T06:17:15.000Z,257
2023-04-01T06:18:32.000Z,301
2023-04-01T06:19:48.000Z,406
2023-04-01T06:21:04.000Z,465
2023-04-01T06:22:20.000Z,390
2023-04-01T06:23:37.000Z,425
2023-04-01T06:24:53.565Z,365
2023-04-01T06:26:09.000Z,279
2023-04-01T06:27:26.045Z,372
2023-04-01T06:28:42.280Z,340
2023-04-01T06:29:58.000Z,478
2023-04-01T06:31:13.000Z,457
2023-04-01T06:32:29.000Z,384
2023-04-01T06:33:45.000Z,434
2023-04-01T06:35:02.000Z,354
2023-04-01T06:36:18.000Z,401
2023-04-01T06:37:34.000Z,505
2023-04-01T06:38:50.000Z,414
2023-04-01T06:40:07.000Z,496
2023-04-01T06:42:39.000Z,626
2023-04-01T06:43:55.000Z,638
2023-04-01T06:45:12.000Z,645
2023-04-01T06:46:28.000Z,751
2023-04-01T06:47:43.000Z,931
2023-04-01T06:48:59.000Z,957
2023-04-01T06:50:16.000Z,739
2023-04-01T06:51:32.000Z,855
2023-04-01T06:52:48.000Z,943
2023-04-01T06:54:04.000Z,932
2023-04-01T06:55:20.000Z,1026
2023-04-01T06:56:37.000Z,1255
2023-04-01T06:57:53.000Z,943
2023-04-01T06:59:09.000Z,905
2023-04-01T07:00:25.000Z,1039
2023-04-01T07:01:42.000Z,1194
2023-04-01T07:02:58.000Z,936
2023-04-01T07:04:13.000Z,1241
2023-04-01T07:05:29.129Z,1366
2023-04-01T07:06:44.385Z,1542
2023-04-01T07:07:59.000Z,1487
2023-04-01T07:09:15.000Z,1075
2023-04-01T07:10:31.000Z,1446
2023-04-01T07:11:48.000Z,1407
2023-04-01T07:13:04.000Z,1445
2023-04-01T07:14:20.000Z,1208
2023-04-01T07:15:36.000Z,1113
2023-04-01T07:16:53.000Z,1219
2023-04-01T07:18:09.000Z,1146
2023-04-01T07:19:25.000Z,1159
2023-04-01T07:20:41.000Z,1114
2023-04-01T07:21:57.000Z,1370
2023-04-01T07:23:14.000Z,1111
2023-04-01T07:24:29.000Z,1055
2023-04-01T07:25:45.000Z,1291
2023-04-01T07:27:01.000Z,872
2023-04-01T07:28:18.000Z,994
2023-04-01T07:29:34.599Z,972
2023-04-01T07:30:50.000Z,1019
2023-04-01T07:32:06.000Z,933
2023-04-01T07:33:23.000Z,1009
2023-04-01T07:34:39.000Z,937
2023-04-01T07:35:55.000Z,791
2023-04-01T07:37:11.000Z,718
2023-04-01T07:38:27.000Z,670
2023-04-01T07:39:44.000Z,968
2023-04-01T07:40:59.000Z,1278
2023-04-01T07:42:15.000Z,1293
2023-04-01T07:43:31.000Z,933
2023-04-01T07:44:48.000Z,976
2023-04-01T07:46:04.000Z,874
2023-04-01T07:47:20.000Z,887
2023-04-01T07:48:36.000Z,630
2023-04-01T07:49:52.000Z,728
2023-04-01T07:51:07.000Z,747
2023-04-01T07:52:22.000Z,806
2023-04-01T07:53:37.000Z,673
2023-04-01T07:54:54.000Z,914
2023-04-01T07:56:10.000Z,700
2023-04-01T07:57:26.000Z,1179
2023-04-01T07:58:42.000Z,1163
2023-04-01T07:59:59.000Z,1286
2023-04-01T08:01:15.000Z,1439
2023-04-01T08:02:31.000Z,1345
2023-04-01T08:03:47.000Z,1521
2023-04-01T08:05:04.000Z,1611
2023-04-01T08:06:20.000Z,1482
2023-04-01T08:07:36.000Z,1372
2023-04-01T08:08:52.000Z,1189
2023-04-01T08:10:07.000Z,1447
2023-04-01T08:11:24.000Z,1177
2023-04-01T08:12:40.000Z,1067
2023-04-01T08:13:56.000Z,1103
2023-04-01T08:15:12.000Z,1255
2023-04-01T08:16:29.000Z,1108
2023-04-01T08:17:45.000Z,1122
2023-04-01T08:19:00.000Z,1087
2023-04-01T08:20:15.000Z,1362
2023-04-01T08:21:32.000Z,1427
2023-04-01T08:24:03.000Z,1806
2023-04-01T08:25:18.000Z,1659
2023-04-01T08:26:34.000Z,1312
2023-04-01T08:27:50.000Z,1327
2023-04-01T08:29:06.000Z,1568
2023-04-01T08:30:22.000Z,1259
2023-04-01T08:31:39.278Z,1395
2023-04-01T08:32:55.000Z,1517
2023-04-01T08:34:11.749Z,1440
2023-04-01T08:35:27.982Z,1754
2023-04-01T08:36:43.000Z,2049
2023-04-01T08:38:00.000Z,1926
2023-04-01T08:39:16.672Z,1668
2023-04-01T08:40:32.000Z,1337
2023-04-01T08:41:48.000Z,1697
2023-04-01T08:43:04.000Z,1645
2023-04-01T08:44:20.000Z,1534
2023-04-01T08:45:36.000Z,2152
2023-04-01T08:46:52.000Z,1901
2023-04-01T08:48:09.000Z,1589
2023-04-01T08:49:25.000Z,1523
2023-04-01T08:50:41.000Z,1899
2023-04-01T08:51:57.047Z,1852
2023-04-01T08:53:12.000Z,1207
2023-04-01T08:54:27.563Z,1200
2023-04-01T08:55:42.000Z,1662
2023-04-01T08:56:58.000Z,1632
2023-04-01T08:58:15.000Z,1661
2023-04-01T08:59:31.000Z,1294
2023-04-01T09:02:03.000Z,1298
2023-04-01T09:03:19.000Z,1344
2023-04-01T09:04:36.000Z,1058
2023-04-01T09:05:52.000Z,1373
2023-04-01T09:07:08.000Z,1541
2023-04-01T09:08:24.000Z,1813
2023-04-01T09:09:40.000Z,1383
2023-04-01T09:10:56.000Z,1565
2023-04-01T09:12:12.000Z,1919
2023-04-01T09:14:45.000Z,1747
2023-04-01T09:16:00.000Z,2070
2023-04-01T09:17:15.000Z,1548
2023-04-01T09:18:31.000Z,1823
2023-04-01T09:19:48.307Z,2056
2023-04-01T09:21:04.000Z,1779
2023-04-01T09:22:20.777Z,1599
2023-04-01T09:23:36.000Z,1497
2023-04-01T09:24:52.000Z,1328
2023-04-01T09:26:09.000Z,1647
2023-04-01T09:27:25.691Z,1951
2023-04-01T09:28:41.000Z,1727
2023-04-01T09:29:56.000Z,1919
2023-04-01T09:31:12.000Z,1908
2023-04-01T09:32:28.000Z,1866
2023-04-01T09:33:44.000Z,1631
2023-04-01T09:35:00.000Z,1684
2023-04-01T09:36:17.000Z,1766
2023-04-01T09:37:33.000Z,1705
2023-04-01T09:40:06.107Z,1621
2023-04-01T09:41:22.313Z,1689
2023-04-01T09:42:38.000Z,1874
2023-04-01T09:43:54.000Z,2040
2023-04-01T09:45:10.000Z,2995
2023-04-01T09:46:26.000Z,2534
2023-04-01T09:47:42.000Z,2206
2023-04-01T09:48:58.000Z,1814
2023-04-01T09:50:14.000Z,1768
2023-04-01T09:52:47.000Z,1632
2023-04-01T09:54:02.000Z,1576
2023-04-01T09:55:17.000Z,1886
2023-04-01T09:56:33.000Z,1731
2023-04-01T09:57:50.000Z,1702
2023-04-01T09:59:06.000Z,1437
2023-04-01T10:00:22.000Z,1489
2023-04-01T10:01:38.000Z,1590
2023-04-01T10:02:55.000Z,1697
2023-04-01T10:04:11.000Z,1640
2023-04-01T10:05:27.803Z,1596
2023-04-01T10:06:43.000Z,1631
2023-04-01T10:07:59.000Z,1257
2023-04-01T10:09:14.000Z,1537
2023-04-01T10:10:30.000Z,1880
2023-04-01T10:11:46.000Z,1641
2023-04-01T10:13:02.000Z,1661
2023-04-01T10:14:19.478Z,1696
2023-04-01T10:15:35.000Z,1819
2023-04-01T10:16:51.960Z,1401
2023-04-01T10:18:07.000Z,1902
2023-04-01T10:19:24.000Z,1996
2023-04-01T10:20:40.000Z,2038
2023-04-01T10:21:56.000Z,1835
2023-04-01T10:23:12.000Z,2044
2023-04-01T10:24:29.000Z,2162
2023-04-01T10:25:45.000Z,2334
2023-04-01T10:27:00.000Z,2079
2023-04-01T10:28:16.000Z,1572
2023-04-01T10:29:33.000Z,1296
2023-04-01T10:30:49.000Z,1540
2023-04-01T10:32:05.000Z,2038
2023-04-01T10:33:21.992Z,2218
2023-04-01T10:34:37.000Z,1989
2023-04-01T10:35:54.000Z,2270
2023-04-01T10:37:10.000Z,2625
2023-04-01T10:38:26.000Z,2899
2023-04-01T10:39:42.000Z,2622
2023-04-01T10:40:59.000Z,2363
2023-04-01T10:42:15.000Z,1881
2023-04-01T10:43:30.892Z,3392
2023-04-01T10:44:46.000Z,3954
2023-04-01T10:46:03.000Z,3628
2023-04-01T10:47:19.000Z,5783
2023-04-01T10:48:35.000Z,4646
2023-04-01T10:49:51.000Z,4704
2023-04-01T10:51:08.281Z,5230
2023-04-01T10:52:24.000Z,5705
2023-04-01T10:53:40.000Z,5321
2023-04-01T10:54:56.000Z,5475
2023-04-01T10:56:12.000Z,5312
2023-04-01T10:57:29.000Z,4469
2023-04-01T10:58:45.659Z,3641
2023-04-01T11:00:00.000Z,4118
2023-04-01T11:01:16.000Z,3635
2023-04-01T11:02:33.000Z,3277
2023-04-01T11:03:49.000Z,3418
2023-04-01T11:05:05.000Z,3494
2023-04-01T11:06:21.000Z,3442
2023-04-01T11:08:54.000Z,3320
2023-04-01T11:10:10.000Z,3203
2023-04-01T11:11:26.000Z,2906
2023-04-01T11:12:43.000Z,2672
2023-04-01T11:13:59.000Z,2634
2023-04-01T11:15:15.000Z,2364
2023-04-01T11:16:30.000Z,2011
2023-04-01T11:17:46.000Z,1935
2023-04-01T11:19:03.000Z,1830
2023-04-01T11:21:35.000Z,1641
2023-04-01T11:22:51.000Z,1605
2023-04-01T11:24:08.000Z,1575
2023-04-01T11:25:24.000Z,1691
2023-04-01T11:26:40.000Z,1821
2023-04-01T11:27:56.000Z,1784
2023-04-01T11:29:13.000Z,1685
2023-04-01T11:30:29.000Z,1540
2023-04-01T11:31:45.000Z,1441
2023-04-01T11:34:17.000Z,1304
2023-04-01T11:35:32.000Z,1164
2023-04-01T11:36:47.000Z,1023
2023-04-01T11:38:03.000Z,981
2023-04-01T11:39:19.000Z,916
2023-04-01T11:40:36.000Z,953
2023-04-01T11:41:52.000Z,1061
2023-04-01T11:43:08.913Z,1105
2023-04-01T11:44:24.000Z,1153
2023-04-01T11:45:41.401Z,1173
2023-04-01T11:46:57.000Z,1209
2023-04-01T11:48:13.000Z,1184
2023-04-01T11:49:28.000Z,1196
2023-04-01T11:50:44.000Z,1119
2023-04-01T11:52:00.000Z,991
2023-04-01T11:53:16.835Z,931
2023-04-01T11:54:32.000Z,996
2023-04-01T11:55:49.000Z,1233
2023-04-01T11:57:05.531Z,1228
2023-04-01T11:58:21.767Z,1191
2023-04-01T11:59:38.000Z,1069
2023-04-01T12:00:53.000Z,1049
2023-04-01T12:02:10.000Z,944
2023-04-01T12:03:26.000Z,907
2023-04-01T12:04:42.000Z,1118
2023-04-01T12:05:58.000Z,1264
2023-04-01T12:07:14.000Z,1330
2023-04-01T12:08:30.000Z,1438
2023-04-01T12:09:46.000Z,1861
2023-04-01T12:11:02.000Z,1875
2023-04-01T12:12:19.000Z,1739
2023-04-01T12:13:35.000Z,1571
2023-04-01T12:14:51.827Z,1445
2023-04-01T12:16:07.000Z,1306
2023-04-01T12:17:24.288Z,1216
2023-04-01T12:18:40.000Z,1142
2023-04-01T12:19:56.000Z,1058
2023-04-01T12:21:12.999Z,991
2023-04-01T12:22:28.000Z,951
2023-04-01T12:23:44.463Z,943
2023-04-01T12:25:00.000Z,975
2023-04-01T12:26:16.000Z,1029
2023-04-01T12:27:32.000Z,1035
2023-04-01T12:28:49.000Z,1047
2023-04-01T12:30:05.000Z,1030
2023-04-01T12:31:21.000Z,1043
2023-04-01T12:32:38.102Z,1042
2023-04-01T12:33:54.000Z,1019
2023-04-01T12:35:10.000Z,1051
2023-04-01T12:36:26.000Z,1133
2023-04-01T12:37:42.000Z,1249
2023-04-01T12:38:59.000Z,1329
2023-04-01T12:40:14.000Z,1340
2023-04-01T12:41:30.000Z,1317
2023-04-01T12:42:46.000Z,1227
2023-04-01T12:44:02.000Z,1191
2023-04-01T12:45:19.000Z,1210
2023-04-01T12:46:35.000Z,1192
2023-04-01T12:47:51.000Z,1181
2023-04-01T12:49:08.139Z,1167
2023-04-01T12:50:24.381Z,1165
2023-04-01T12:51:40.000Z,1157
2023-04-01T12:52:56.000Z,1129
2023-04-01T12:54:12.000Z,1109
2023-04-01T12:55:29.000Z,1096
2023-04-01T12:56:44.000Z,1048
2023-04-01T12:58:00.000Z,1024
2023-04-01T12:59:16.000Z,1009
2023-04-01T13:00:33.000Z,987
2023-04-01T13:01:49.000Z,1000
2023-04-01T13:04:21.000Z,1045
2023-04-01T13:05:37.000Z,1058
2023-04-01T13:06:54.000Z,1091
2023-04-01T13:08:10.000Z,1143
2023-04-01T13:09:26.000Z,1164
2023-04-01T13:10:42.000Z,1179
2023-04-01T13:11:59.000Z,1201
2023-04-01T13:13:14.000Z,1204
2023-04-01T13:14:30.856Z,1173
2023-04-01T13:15:46.000Z,1147
2023-04-01T13:17:03.000Z,1184
2023-04-01T13:18:19.000Z,1205
2023-04-01T13:19:35.000Z,1170
2023-04-01T13:20:51.000Z,1075
2023-04-01T13:22:08.000Z,1062
2023-04-01T13:23:24.000Z,1022
2023-04-01T13:24:39.000Z,970
2023-04-01T13:25:55.968Z,979
2023-04-01T13:27:12.196Z,1003
2023-04-01T13:28:28.000Z,1039
2023-04-01T13:29:44.000Z,1079
2023-04-01T13:31:00.000Z,1161
2023-04-01T13:32:16.000Z,1246
2023-04-01T13:33:33.000Z,1322
2023-04-01T13:34:49.000Z,1375
2023-04-01T13:36:05.000Z,1429
2023-04-01T13:37:21.000Z,1472
2023-04-01T13:38:38.000Z,1496
2023-04-01T13:39:54.000Z,1533
2023-04-01T13:41:09.000Z,1552
2023-04-01T13:42:25.000Z,1554
2023-04-01T13:43:42.231Z,1585
2023-04-01T13:44:58.000Z,1606
2023-04-01T13:46:14.726Z,1624
2023-04-01T13:47:30.000Z,1634
2023-04-01T13:48:46.000Z,1634
2023-04-01T13:50:03.000Z,1638
2023-04-01T13:51:19.000Z,1642
2023-04-01T13:53:51.000Z,1680
2023-04-01T13:55:08.000Z,1726
2023-04-01T13:56:24.000Z,1756
2023-04-01T13:57:39.000Z,1782
2023-04-01T13:58:55.000Z,1788
2023-04-01T14:00:12.000Z,1813
2023-04-01T14:01:28.000Z,1840
2023-04-01T14:02:44.000Z,1855
2023-04-01T14:04:00.987Z,1871
2023-04-01T14:05:16.000Z,1876
2023-04-01T14:06:33.000Z,1939
2023-04-01T14:07:49.000Z,1950
2023-04-01T14:09:05.000Z,1985
2023-04-01T14:10:21.000Z,2020
2023-04-01T14:11:38.000Z,2038
2023-04-01T14:12:53.000Z,2061
2023-04-01T14:14:08.000Z,2081
2023-04-01T14:15:24.000Z,2115
2023-04-01T14:16:41.000Z,2119
2023-04-01T14:17:57.000Z,2097
2023-04-01T14:19:13.839Z,2108
2023-04-01T14:20:29.000Z,2120
2023-04-01T14:21:45.000Z,2163
2023-04-01T14:23:00.000Z,2193
2023-04-01T14:24:16.000Z,2237
2023-04-01T14:25:32.000Z,2280
2023-04-01T14:26:49.000Z,2270
2023-04-01T14:28:05.000Z,2280
2023-04-01T14:29:21.000Z,2296
2023-04-01T14:31:53.000Z,2385
2023-04-01T14:33:10.000Z,2488
2023-04-01T14:34:26.000Z,2620
2023-04-01T14:35:42.000Z,2724
2023-04-01T14:36:58.000Z,2797
2023-04-01T14:38:15.000Z,2769
2023-04-01T14:39:30.000Z,2713
2023-04-01T14:40:46.874Z,2748
2023-04-01T14:42:02.000Z,2751
2023-04-01T14:43:19.000Z,2717
2023-04-01T14:44:35.545Z,2573
2023-04-01T14:45:51.000Z,2455
2023-04-01T14:47:08.024Z,2332
2023-04-01T14:48:24.000Z,2227
2023-04-01T14:49:40.000Z,2134
2023-04-01T14:50:56.000Z,2083
2023-04-01T14:52:12.000Z,2065
2023-04-01T14:53:28.000Z,2001
2023-04-01T14:54:45.000Z,1974
2023-04-01T14:56:00.681Z,1957
2023-04-01T14:57:16.000Z,1869
2023-04-01T14:58:31.000Z,1932
2023-04-01T14:59:47.000Z,2012
2023-04-01T15:01:03.000Z,2035
2023-04-01T15:02:19.000Z,2127
2023-04-01T15:03:34.000Z,2153
2023-04-01T15:04:50.000Z,2206
2023-04-01T15:06:06.000Z,2300
2023-04-01T15:07:22.860Z,2320
2023-04-01T15:09:55.000Z,2257
2023-04-01T15:11:11.000Z,2288
2023-04-01T15:12:27.000Z,2304
2023-04-01T15:13:43.000Z,2353
2023-04-01T15:15:00.000Z,2333
2023-04-01T15:16:16.000Z,2318
2023-04-01T15:17:32.000Z,2430
2023-04-01T15:18:48.000Z,2360
2023-04-01T15:20:04.000Z,2408
2023-04-01T15:21:20.000Z,2500
2023-04-01T15:22:36.000Z,2400
2023-04-01T15:23:52.000Z,2310
2023-04-01T15:25:08.000Z,2405
2023-04-01T15:26:25.000Z,2299
2023-04-01T15:27:41.000Z,2187
2023-04-01T15:28:57.000Z,2150
2023-04-01T15:30:13.000Z,2271
2023-04-01T15:31:30.000Z,2422
2023-04-01T15:32:46.000Z,2213
2023-04-01T15:35:18.000Z,2092
2023-04-01T15:36:34.000Z,2215
2023-04-01T15:37:50.482Z,1658
2023-04-01T15:39:06.000Z,985
2023-04-01T15:40:22.000Z,1056
2023-04-01T15:41:38.000Z,1092
2023-04-01T15:42:55.000Z,1078
2023-04-01T15:44:11.000Z,1153
2023-04-01T15:45:27.000Z,1201
2023-04-01T15:46:43.000Z,1287
2023-04-01T15:48:00.000Z,1182
2023-04-01T15:49:16.000Z,1167
2023-04-01T15:50:32.000Z,1091
2023-04-01T15:51:48.000Z,1221
2023-04-01T15:53:05.000Z,1335
2023-04-01T15:54:20.000Z,1445
2023-04-01T15:55:36.000Z,1393
2023-04-01T15:56:52.000Z,1200
2023-04-01T15:58:08.000Z,1227
2023-04-01T15:59:24.000Z,1332
2023-04-01T16:00:39.000Z,1304
2023-04-01T16:01:55.000Z,749
2023-04-01T16:03:11.000Z,876
2023-04-01T16:04:27.000Z,1059
2023-04-01T16:05:42.000Z,964
2023-04-01T16:06:58.000Z,945
2023-04-01T16:08:15.186Z,1096
2023-04-01T16:09:31.000Z,1349
2023-04-01T16:10:47.000Z,1426
2023-04-01T16:13:19.000Z,1394
2023-04-01T16:14:36.000Z,982
2023-04-01T16:15:52.000Z,602
2023-04-01T16:17:08.000Z,539
2023-04-01T16:18:24.000Z,489
2023-04-01T16:19:41.000Z,446
2023-04-01T16:20:57.000Z,391
2023-04-01T16:22:12.000Z,673
2023-04-01T16:23:28.992Z,808
2023-04-01T16:24:45.229Z,928
2023-04-01T16:26:01.000Z,1055
2023-04-01T16:27:17.000Z,1124
2023-04-01T16:28:33.000Z,1170
2023-04-01T16:29:49.000Z,1122
2023-04-01T16:31:06.000Z,1076
2023-04-01T16:32:22.000Z,891
2023-04-01T16:33:38.000Z,880
2023-04-01T16:34:54.000Z,845
2023-04-01T16:36:11.310Z,724
2023-04-01T16:37:27.000Z,483
2023-04-01T16:38:42.000Z,389
2023-04-01T16:39:58.000Z,374
2023-04-01T16:41:15.000Z,400
2023-04-01T16:42:31.000Z,714
2023-04-01T16:43:47.000Z,524
2023-04-01T16:45:03.000Z,692
2023-04-01T16:46:20.215Z,459
2023-04-01T16:47:36.000Z,662
2023-04-01T16:48:52.000Z,646
2023-04-01T16:51:24.000Z,632
2023-04-01T16:52:41.000Z,556
2023-04-01T16:53:57.000Z,514
2023-04-01T16:55:12.000Z,448
2023-04-01T16:56:28.000Z,436
2023-04-01T16:57:45.000Z,260
2023-04-01T16:59:01.000Z,350
2023-04-01T17:00:17.000Z,346
2023-04-01T17:01:33.000Z,300
2023-04-01T17:02:50.000Z,249
2023-04-01T17:04:06.000Z,231
2023-04-01T17:05:22.721Z,189
2023-04-01T17:06:38.974Z,196
2023-04-01T17:07:54.000Z,214
2023-04-01T17:09:11.000Z,153
2023-04-01T17:10:27.000Z,213
2023-04-01T17:11:42.926Z,144
2023-04-01T17:12:57.000Z,195
2023-04-01T17:14:14.000Z,210
2023-04-01T17:15:29.000Z,181
2023-04-01T17:16:44.000Z,133
2023-04-01T17:18:00.000Z,122
2023-04-01T17:19:17.000Z,122
2023-04-01T17:20:33.000Z,104
2023-04-01T17:21:49.000Z,70
2023-04-01T17:23:05.000Z,103
2023-04-01T17:24:22.000Z,94
2023-04-01T17:25:38.000Z,82
2023-04-01T17:26:54.000Z,108
2023-04-01T17:28:10.000Z,114
2023-04-01T17:29:26.000Z,113
2023-04-01T17:30:43.000Z,171
2023-04-01T17:31:59.744Z,122
2023-04-01T17:33:14.000Z,143
2023-04-01T17:34:30.000Z,129
2023-04-01T17:35:47.000Z,128
2023-04-01T17:37:03.000Z,94
2023-04-01T17:38:19.000Z,99
2023-04-01T17:39:34.000Z,101
2023-04-01T17:40:51.000Z,95
2023-04-01T17:42:07.000Z,78
2023-04-01T17:43:23.000Z,68
2023-04-01T17:44:39.000Z,62
2023-04-01T17:45:56.000Z,53
2023-04-01T17:47:12.000Z,40
2023-04-01T17:48:28.000Z,42
2023-04-01T17:49:45.028Z,42
2023-04-01T17:51:01.000Z,38
2023-04-01T17:52:17.000Z,40
2023-04-01T17:53:33.709Z,44
2023-04-01T17:54:49.000Z,41